Time;durP1;ratioP1;P1;durP2;ratioP2;P2;SDS_P1;SDS_P2;PMS_P1;PMS_P2;Temp;Humidity;BMP_temperature;BMP_pressure;BME280_temperature;BME280_humidity;BME280_pressure;Samples;Min_cycle;Max_cycle;Signal;HPM_P1;HPM_P2
2022/06/17 00:01:47;;;;;;;9.32;5.07;;;;;;;;;;5059641;28;20032;-74
2022/06/17 00:04:13;;;;;;;12.40;5.25;;;;;;;;;;5057148;28;20029;-76
2022/06/17 00:06:42;;;;;;;9.30;4.88;;;;;;;;;;5055101;28;20493;-75
2022/06/17 00:09:08;;;;;;;12.60;5.00;;;;;;;;;;5054915;28;20642;-77
2022/06/17 00:11:35;;;;;;;14.40;5.20;;;;;;;;;;5054694;28;20049;-74
2022/06/17 00:14:01;;;;;;;14.32;5.38;;;;;;;;;;5053846;28;20385;-77
2022/06/17 00:16:27;;;;;;;13.98;6.45;;;;;;;;;;5078616;22;20065;-75
2022/06/17 00:18:54;;;;;;;14.65;5.80;;;;;;;;;;5055976;28;20427;-76
2022/06/17 00:21:25;;;;;;;12.82;5.57;;;;;;;;;;5055393;28;20049;-75
2022/06/17 00:23:51;;;;;;;13.10;5.50;;;;;;;;;;5055495;28;20025;-76
2022/06/17 00:26:18;;;;;;;15.88;6.68;;;;;;;;;;5055392;28;20091;-75
2022/06/17 00:28:44;;;;;;;17.20;6.20;;;;;;;;;;5056056;28;20025;-75
2022/06/17 00:31:10;;;;;;;13.38;6.18;;;;;;;;;;5058402;28;20432;-76
2022/06/17 00:33:36;;;;;;;11.48;5.97;;;;;;;;;;5062844;28;20032;-76
2022/06/17 00:36:02;;;;;;;12.45;5.90;;;;;;;;;;5063523;28;20089;-75
2022/06/17 00:38:33;;;;;;;12.05;6.43;;;;;;;;;;5059615;28;20036;-76
2022/06/17 00:41:02;;;;;;;12.07;6.32;;;;;;;;;;5057468;28;20066;-75
2022/06/17 00:43:30;;;;;;;11.73;5.72;;;;;;;;;;5063877;28;20098;-76
2022/06/17 00:46:02;;;;;;;13.57;5.45;;;;;;;;;;5061274;28;20028;-75
2022/06/17 00:48:31;;;;;;;12.25;5.72;;;;;;;;;;5057024;28;20078;-75
2022/06/17 00:51:00;;;;;;;12.63;6.38;;;;;;;;;;5055033;28;20032;-75
2022/06/17 00:53:41;;;;;;;13.80;6.35;;;;;;;;;;5056834;28;20112;-76
2022/06/17 00:56:13;;;;;;;18.67;6.22;;;;;;;;;;5056349;28;20063;-75
2022/06/17 00:58:58;;;;;;;11.40;6.07;;;;;;;;;;5054847;28;20056;-77
2022/06/17 01:01:25;;;;;;;11.88;6.20;;;;;;;;;;5075131;28;20041;-75
2022/06/17 01:03:55;;;;;;;11.48;6.45;;;;;;;;;;5078043;28;20066;-74
2022/06/17 01:06:23;;;;;;;13.30;6.82;;;;;;;;;;5059527;28;20044;-75
2022/06/17 01:11:46;;;;;;;10.57;6.22;;;;;;;;;;5053088;28;20044;-74
2022/06/17 01:14:14;;;;;;;11.30;5.97;;;;;;;;;;5053330;28;20119;-75
2022/06/17 01:16:41;;;;;;;12.80;6.07;;;;;;;;;;5051919;28;20029;-74
2022/06/17 01:19:22;;;;;;;11.50;6.47;;;;;;;;;;5053589;28;20493;-74
2022/06/17 01:21:49;;;;;;;13.27;6.25;;;;;;;;;;5053389;28;20036;-76
2022/06/17 01:24:15;;;;;;;12.25;6.45;;;;;;;;;;5052981;28;20056;-75
2022/06/17 01:26:42;;;;;;;14.65;6.65;;;;;;;;;;5052840;28;20028;-76
2022/06/17 01:29:13;;;;;;;16.40;6.32;;;;;;;;;;5052327;28;20067;-75
2022/06/17 01:31:39;;;;;;;14.32;6.20;;;;;;;;;;5053493;28;20096;-75
2022/06/17 01:34:05;;;;;;;17.33;6.65;;;;;;;;;;5052290;28;20025;-74
2022/06/17 01:36:31;;;;;;;12.05;6.50;;;;;;;;;;5053963;28;20029;-75
2022/06/17 01:38:59;;;;;;;15.93;7.05;;;;;;;;;;5055124;28;20063;-75
2022/06/17 01:41:27;;;;;;;14.88;7.20;;;;;;;;;;5056540;28;20390;-76
2022/06/17 01:43:54;;;;;;;13.65;6.68;;;;;;;;;;5056110;28;20501;-75
2022/06/17 01:46:23;;;;;;;16.55;7.03;;;;;;;;;;5053072;28;20386;-74
2022/06/17 01:48:53;;;;;;;13.73;6.95;;;;;;;;;;5052711;28;20071;-76
2022/06/17 01:51:21;;;;;;;15.43;7.30;;;;;;;;;;5053051;28;20505;-74
2022/06/17 01:53:49;;;;;;;15.55;7.28;;;;;;;;;;5051781;28;20029;-75
2022/06/17 01:56:18;;;;;;;13.65;6.38;;;;;;;;;;5052692;28;20053;-74
2022/06/17 01:58:47;;;;;;;14.02;7.00;;;;;;;;;;5052931;28;20040;-75
2022/06/17 02:01:14;;;;;;;10.65;6.82;;;;;;;;;;5052778;28;20020;-75
2022/06/17 02:03:44;;;;;;;14.57;7.20;;;;;;;;;;5052999;28;20466;-74
2022/06/17 02:06:12;;;;;;;13.63;7.22;;;;;;;;;;5058466;28;20029;-75
2022/06/17 02:08:38;;;;;;;14.23;7.38;;;;;;;;;;5061664;28;20033;-74
2022/06/17 02:11:05;;;;;;;12.50;6.45;;;;;;;;;;5053053;28;20040;-76
2022/06/17 02:13:32;;;;;;;13.00;7.55;;;;;;;;;;5052622;28;20029;-75
2022/06/17 02:16:02;;;;;;;12.52;7.45;;;;;;;;;;5052425;28;20029;-75
2022/06/17 02:18:28;;;;;;;14.18;7.28;;;;;;;;;;5053033;28;20029;-73
2022/06/17 02:20:55;;;;;;;12.73;6.88;;;;;;;;;;5052829;28;20021;-76
2022/06/17 02:23:22;;;;;;;12.35;6.80;;;;;;;;;;5053006;28;20075;-76
2022/06/17 02:25:49;;;;;;;17.55;8.00;;;;;;;;;;5052463;28;20037;-74
2022/06/17 02:28:16;;;;;;;16.65;7.93;;;;;;;;;;5053541;28;20039;-75
2022/06/17 02:30:43;;;;;;;13.10;7.63;;;;;;;;;;5054126;28;20108;-76
2022/06/17 02:33:10;;;;;;;13.68;7.07;;;;;;;;;;5053332;28;20036;-74
2022/06/17 02:35:39;;;;;;;18.63;8.02;;;;;;;;;;5051395;28;20029;-74
2022/06/17 02:38:06;;;;;;;16.33;8.10;;;;;;;;;;5056355;28;20021;-75
2022/06/17 02:40:34;;;;;;;18.48;8.93;;;;;;;;;;5056507;28;20025;-75
2022/06/17 02:43:01;;;;;;;15.30;8.10;;;;;;;;;;5056770;28;20028;-76
2022/06/17 02:45:30;;;;;;;17.08;9.20;;;;;;;;;;5056550;28;20040;-76
2022/06/17 02:47:56;;;;;;;12.20;7.90;;;;;;;;;;5056732;28;20039;-75
2022/06/17 02:50:26;;;;;;;14.27;8.38;;;;;;;;;;5056624;28;20029;-75
2022/06/17 02:52:53;;;;;;;15.05;7.57;;;;;;;;;;5054971;28;20036;-74
2022/06/17 02:55:20;;;;;;;14.30;8.07;;;;;;;;;;5056684;28;20036;-75
2022/06/17 02:57:47;;;;;;;12.35;7.53;;;;;;;;;;5056963;28;20109;-75
2022/06/17 03:00:13;;;;;;;14.63;7.85;;;;;;;;;;5057237;28;20028;-74
2022/06/17 03:02:41;;;;;;;14.30;7.93;;;;;;;;;;5058207;28;20029;-75
2022/06/17 03:05:19;;;;;;;17.20;7.97;;;;;;;;;;5058561;28;20112;-76
2022/06/17 03:07:45;;;;;;;16.45;8.23;;;;;;;;;;5057021;28;20362;-76
2022/06/17 03:10:17;;;;;;;16.42;8.55;;;;;;;;;;5057234;28;20021;-73
2022/06/17 03:12:43;;;;;;;18.60;9.60;;;;;;;;;;5068645;28;20029;-75
2022/06/17 03:15:10;;;;;;;14.70;8.70;;;;;;;;;;5055166;28;20029;-74
2022/06/17 03:17:39;;;;;;;14.90;9.07;;;;;;;;;;5055940;28;20033;-77
2022/06/17 03:20:06;;;;;;;18.88;10.43;;;;;;;;;;5054910;28;20051;-77
2022/06/17 03:22:32;;;;;;;18.63;9.18;;;;;;;;;;5056028;28;20390;-75
2022/06/17 03:25:03;;;;;;;19.65;9.13;;;;;;;;;;5056210;28;20040;-78
2022/06/17 03:27:28;;;;;;;16.38;9.32;;;;;;;;;;5055652;28;20096;-75
2022/06/17 03:29:55;;;;;;;17.17;9.60;;;;;;;;;;5055964;28;20052;-76
2022/06/17 03:32:25;;;;;;;17.80;9.80;;;;;;;;;;5057473;28;20068;-75
2022/06/17 03:34:52;;;;;;;17.45;9.10;;;;;;;;;;5055654;28;20039;-78
2022/06/17 03:37:22;;;;;;;17.92;8.65;;;;;;;;;;5057588;28;20029;-74
2022/06/17 03:39:51;;;;;;;15.73;9.25;;;;;;;;;;5056100;28;20025;-75
2022/06/17 03:42:20;;;;;;;21.02;9.30;;;;;;;;;;5055980;28;20091;-75
2022/06/17 03:44:53;;;;;;;19.08;9.75;;;;;;;;;;5055555;28;20029;-76
2022/06/17 03:47:22;;;;;;;15.43;9.18;;;;;;;;;;5072110;28;20017;-74
2022/06/17 03:49:53;;;;;;;21.23;9.00;;;;;;;;;;5074120;28;20032;-75
2022/06/17 03:52:40;;;;;;;16.95;8.88;;;;;;;;;;5059290;28;20036;-76
2022/06/17 03:55:08;;;;;;;18.95;10.10;;;;;;;;;;5034265;28;20040;-75
2022/06/17 03:57:34;;;;;;;15.10;9.55;;;;;;;;;;5055219;28;20071;-75
2022/06/17 04:00:01;;;;;;;17.73;10.18;;;;;;;;;;5055266;28;20070;-75
2022/06/17 04:02:29;;;;;;;16.95;9.23;;;;;;;;;;5055581;28;20100;-75
2022/06/17 04:04:56;;;;;;;17.15;9.20;;;;;;;;;;5055411;28;20040;-75
2022/06/17 04:07:22;;;;;;;16.65;9.00;;;;;;;;;;5055996;28;20027;-76
2022/06/17 04:09:49;;;;;;;20.65;9.25;;;;;;;;;;5060017;28;20032;-75
2022/06/17 04:12:19;;;;;;;25.65;9.85;;;;;;;;;;5061659;28;20028;-76
2022/06/17 04:14:47;;;;;;;16.55;9.85;;;;;;;;;;5059808;28;20029;-75
2022/06/17 04:17:20;;;;;;;17.52;9.02;;;;;;;;;;5060632;28;20037;-74
2022/06/17 04:19:50;;;;;;;19.40;10.77;;;;;;;;;;5062185;28;20025;-75
2022/06/17 04:22:25;;;;;;;17.38;9.95;;;;;;;;;;5059564;28;20497;-75
2022/06/17 04:24:53;;;;;;;18.50;10.13;;;;;;;;;;5056042;28;20059;-76
2022/06/17 04:27:20;;;;;;;14.65;9.73;;;;;;;;;;5054283;28;20386;-73
2022/06/17 04:29:49;;;;;;;19.73;10.40;;;;;;;;;;5054577;28;20024;-73
2022/06/17 04:32:31;;;;;;;15.57;9.40;;;;;;;;;;5054426;28;20478;-75
2022/06/17 04:34:57;;;;;;;22.58;10.65;;;;;;;;;;5052852;28;20029;-73
2022/06/17 04:37:24;;;;;;;25.00;10.50;;;;;;;;;;5054319;28;20082;-74
2022/06/17 04:39:49;;;;;;;14.65;9.50;;;;;;;;;;5059690;28;20029;-74
2022/06/17 04:42:18;;;;;;;19.83;10.63;;;;;;;;;;5063990;28;20028;-74
2022/06/17 04:44:45;;;;;;;15.23;10.52;;;;;;;;;;5058136;28;20530;-74
2022/06/17 04:47:12;;;;;;;17.80;11.32;;;;;;;;;;5054591;28;20103;-76
2022/06/17 04:49:41;;;;;;;15.50;10.65;;;;;;;;;;5054948;28;20032;-74
2022/06/17 04:52:12;;;;;;;20.90;12.45;;;;;;;;;;5055289;28;20031;-77
2022/06/17 04:54:39;;;;;;;19.38;11.32;;;;;;;;;;5054934;28;20025;-76
2022/06/17 04:57:05;;;;;;;16.83;11.32;;;;;;;;;;5054032;28;20367;-76
2022/06/17 04:59:41;;;;;;;25.67;13.23;;;;;;;;;;5054918;28;20013;-74
2022/06/17 05:02:11;;;;;;;25.15;14.10;;;;;;;;;;5055123;28;20429;-75
2022/06/17 05:04:37;;;;;;;24.27;13.48;;;;;;;;;;5059403;28;20036;-77
2022/06/17 05:07:04;;;;;;;24.05;13.82;;;;;;;;;;5063251;28;20029;-76
2022/06/17 05:09:30;;;;;;;23.50;14.35;;;;;;;;;;5054696;28;20463;-74
2022/06/17 05:11:59;;;;;;;32.40;16.80;;;;;;;;;;5054994;28;20024;-76
2022/06/17 05:14:34;;;;;;;33.08;18.25;;;;;;;;;;5055181;28;20112;-74
2022/06/17 05:17:00;;;;;;;32.13;16.85;;;;;;;;;;5055268;28;20033;-76
2022/06/17 05:19:26;;;;;;;26.90;16.33;;;;;;;;;;5054520;28;20023;-76
2022/06/17 05:21:52;;;;;;;33.60;18.27;;;;;;;;;;5054764;28;20025;-75
2022/06/17 05:24:18;;;;;;;26.85;17.05;;;;;;;;;;5052628;28;20075;-76
2022/06/17 05:26:44;;;;;;;32.53;16.83;;;;;;;;;;5054188;28;20032;-73
2022/06/17 05:29:10;;;;;;;25.15;15.48;;;;;;;;;;5054043;28;20017;-76
2022/06/17 05:31:37;;;;;;;26.02;17.00;;;;;;;;;;5056306;28;20017;-76
2022/06/17 05:34:03;;;;;;;30.85;15.98;;;;;;;;;;5053520;28;20055;-76
2022/06/17 05:36:29;;;;;;;28.67;15.75;;;;;;;;;;5055124;28;20024;-75
2022/06/17 05:38:55;;;;;;;31.20;15.32;;;;;;;;;;5056778;28;20017;-75
2022/06/17 05:41:24;;;;;;;25.63;13.27;;;;;;;;;;5057276;28;20355;-78
2022/06/17 05:43:50;;;;;;;29.98;15.70;;;;;;;;;;5058079;28;20045;-76
2022/06/17 05:46:16;;;;;;;22.48;13.50;;;;;;;;;;5055182;28;20693;-75
2022/06/17 05:48:42;;;;;;;28.30;14.30;;;;;;;;;;5054458;28;20044;-76
2022/06/17 05:51:09;;;;;;;22.42;11.25;;;;;;;;;;5057074;28;20364;-77
2022/06/17 05:53:35;;;;;;;20.60;10.60;;;;;;;;;;5054037;28;20037;-78
2022/06/17 05:56:01;;;;;;;21.27;9.32;;;;;;;;;;5054298;28;20029;-76
2022/06/17 05:58:27;;;;;;;14.30;7.47;;;;;;;;;;5054145;28;20021;-76
2022/06/17 06:00:53;;;;;;;17.52;7.57;;;;;;;;;;5054609;28;20164;-79
2022/06/17 06:03:21;;;;;;;17.33;6.85;;;;;;;;;;5055665;28;20025;-78
2022/06/17 06:05:47;;;;;;;16.67;6.75;;;;;;;;;;5055339;28;20099;-76
2022/06/17 06:08:13;;;;;;;16.00;6.45;;;;;;;;;;5053952;28;20068;-77
2022/06/17 06:10:40;;;;;;;13.57;6.55;;;;;;;;;;5052497;28;20029;-76
2022/06/17 06:13:06;;;;;;;13.20;5.82;;;;;;;;;;5052909;28;20025;-78
2022/06/17 06:15:36;;;;;;;16.30;6.25;;;;;;;;;;5053148;28;20037;-76
2022/06/17 06:18:02;;;;;;;15.70;6.70;;;;;;;;;;5060107;28;20032;-78
2022/06/17 06:20:28;;;;;;;14.75;6.07;;;;;;;;;;5061880;28;20029;-79
2022/06/17 06:22:54;;;;;;;11.88;5.22;;;;;;;;;;5061132;28;20099;-77
2022/06/17 06:25:20;;;;;;;10.55;4.90;;;;;;;;;;5058849;28;20068;-77
2022/06/17 06:27:47;;;;;;;12.75;5.22;;;;;;;;;;5057907;28;20035;-77
2022/06/17 06:30:16;;;;;;;16.15;5.43;;;;;;;;;;5060683;28;20486;-78
2022/06/17 06:32:49;;;;;;;10.68;4.70;;;;;;;;;;5060775;28;20057;-79
2022/06/17 06:35:16;;;;;;;20.27;5.75;;;;;;;;;;5060256;28;20025;-78
2022/06/17 06:37:42;;;;;;;12.90;5.10;;;;;;;;;;5054832;28;20486;-76
2022/06/17 06:40:08;;;;;;;11.50;4.68;;;;;;;;;;5054277;28;20033;-77
2022/06/17 06:42:34;;;;;;;13.07;5.20;;;;;;;;;;5061068;28;20040;-77
2022/06/17 06:45:00;;;;;;;14.77;4.82;;;;;;;;;;5067134;28;20021;-77
2022/06/17 06:47:26;;;;;;;17.13;5.55;;;;;;;;;;5065299;28;20500;-78
2022/06/17 06:49:52;;;;;;;12.50;5.28;;;;;;;;;;5062940;28;20501;-77
2022/06/17 06:52:18;;;;;;;15.65;5.10;;;;;;;;;;5064387;28;20506;-78
2022/06/17 06:54:44;;;;;;;15.38;5.55;;;;;;;;;;5062102;28;20521;-78
2022/06/17 06:57:10;;;;;;;14.00;4.70;;;;;;;;;;5059289;28;20017;-80
2022/06/17 06:59:36;;;;;;;16.13;4.72;;;;;;;;;;5059869;28;20071;-79
2022/06/17 07:02:02;;;;;;;17.08;4.47;;;;;;;;;;5058047;28;20027;-78
2022/06/17 07:04:28;;;;;;;15.40;4.80;;;;;;;;;;5062978;28;20040;-78
2022/06/17 07:06:54;;;;;;;12.85;4.72;;;;;;;;;;5063616;28;20033;-78
2022/06/17 07:09:22;;;;;;;16.08;6.50;;;;;;;;;;5060741;28;20085;-78
2022/06/17 07:11:48;;;;;;;12.43;4.63;;;;;;;;;;5061216;28;20352;-77
2022/06/17 07:14:14;;;;;;;16.52;4.90;;;;;;;;;;5061604;28;20077;-79
2022/06/17 07:16:40;;;;;;;13.70;4.65;;;;;;;;;;5065499;28;20033;-77
2022/06/17 07:19:07;;;;;;;14.90;4.32;;;;;;;;;;5066207;28;20028;-78
2022/06/17 07:21:34;;;;;;;12.98;5.10;;;;;;;;;;5071058;28;20028;-78
2022/06/17 07:24:00;;;;;;;15.00;4.10;;;;;;;;;;5069582;28;20052;-78
2022/06/17 07:26:27;;;;;;;13.63;4.15;;;;;;;;;;5073862;28;20067;-79
2022/06/17 07:28:54;;;;;;;15.40;4.30;;;;;;;;;;5073819;28;20029;-78
2022/06/17 07:31:21;;;;;;;11.07;4.20;;;;;;;;;;5075748;28;20113;-78
2022/06/17 07:33:47;;;;;;;9.38;3.85;;;;;;;;;;5076147;28;20052;-77
2022/06/17 07:39:53;;;;;;;12.57;4.35;;;;;;;;;;5074044;28;20101;-78
2022/06/17 07:41:50;;;;;;;13.55;4.00;;;;;;;;;;5068459;28;20040;-78
2022/06/17 07:44:17;;;;;;;14.23;4.43;;;;;;;;;;5067779;28;20072;-78
2022/06/17 07:46:43;;;;;;;8.63;3.60;;;;;;;;;;5074109;28;20025;-79
2022/06/17 07:49:09;;;;;;;11.75;4.10;;;;;;;;;;5072893;28;20023;-79
2022/06/17 07:51:35;;;;;;;11.30;3.95;;;;;;;;;;5072051;28;20048;-78
2022/06/17 07:54:01;;;;;;;11.05;4.90;;;;;;;;;;5063308;28;20375;-77
2022/06/17 07:56:27;;;;;;;15.38;6.97;;;;;;;;;;5060271;28;20401;-78
2022/06/17 07:58:53;;;;;;;12.63;3.97;;;;;;;;;;5063241;28;20036;-78
2022/06/17 08:01:19;;;;;;;11.05;4.00;;;;;;;;;;5063486;28;20033;-78
2022/06/17 08:03:45;;;;;;;13.20;4.05;;;;;;;;;;5059333;28;20021;-77
2022/06/17 08:06:13;;;;;;;8.80;4.07;;;;;;;;;;5062738;28;20084;-79
2022/06/17 08:08:40;;;;;;;24.77;10.68;;;;;;;;;;5064711;28;20124;-80
2022/06/17 08:11:07;;;;;;;12.02;4.13;;;;;;;;;;5069657;28;20017;-77
2022/06/17 08:13:33;;;;;;;7.07;3.15;;;;;;;;;;5069772;28;20025;-78
2022/06/17 08:16:00;;;;;;;9.32;3.38;;;;;;;;;;5067973;28;20029;-78
2022/06/17 08:18:26;;;;;;;8.13;3.50;;;;;;;;;;5060515;28;20098;-78
2022/06/17 08:20:52;;;;;;;7.80;3.05;;;;;;;;;;5059616;28;20024;-78
2022/06/17 08:23:19;;;;;;;6.45;3.00;;;;;;;;;;5058997;28;20035;-78
2022/06/17 08:25:45;;;;;;;11.50;3.33;;;;;;;;;;5057439;28;20029;-78
2022/06/17 08:28:12;;;;;;;5.50;2.50;;;;;;;;;;5058819;28;20074;-79
2022/06/17 08:30:43;;;;;;;9.55;3.22;;;;;;;;;;5056755;28;20029;-78
2022/06/17 08:33:09;;;;;;;10.98;3.10;;;;;;;;;;5057396;28;20025;-78
2022/06/17 08:35:37;;;;;;;14.20;3.20;;;;;;;;;;5058341;28;20029;-77
2022/06/17 08:38:05;;;;;;;6.20;2.92;;;;;;;;;;5058884;28;20021;-77
2022/06/17 08:40:31;;;;;;;10.40;3.70;;;;;;;;;;5067870;28;20488;-78
2022/06/17 08:43:03;;;;;;;8.05;2.97;;;;;;;;;;5065825;28;20020;-78
2022/06/17 08:45:37;;;;;;;6.78;2.85;;;;;;;;;;5059660;28;20485;-77
2022/06/17 08:48:02;;;;;;;9.88;3.30;;;;;;;;;;5077928;28;20081;-78
2022/06/17 08:50:45;;;;;;;12.35;3.40;;;;;;;;;;5078664;28;20033;-77
2022/06/17 08:53:30;;;;;;;9.55;3.05;;;;;;;;;;5063027;28;20029;-80
2022/06/17 08:56:16;;;;;;;16.10;3.35;;;;;;;;;;5060216;28;20113;-77
2022/06/17 08:58:42;;;;;;;9.38;3.42;;;;;;;;;;5061071;28;20041;-77
2022/06/17 09:01:27;;;;;;;11.50;2.60;;;;;;;;;;5057745;28;20080;-78
2022/06/17 09:04:02;;;;;;;8.30;3.05;;;;;;;;;;5060363;28;20017;-79
2022/06/17 09:06:40;;;;;;;9.75;5.00;;;;;;;;;;5060391;28;20025;-77
2022/06/17 09:09:06;;;;;;;9.57;4.07;;;;;;;;;;5067162;28;20033;-77
2022/06/17 09:11:38;;;;;;;12.38;3.75;;;;;;;;;;5062618;28;20039;-79
2022/06/17 09:14:23;;;;;;;10.20;3.65;;;;;;;;;;5058601;28;20025;-79
2022/06/17 09:16:49;;;;;;;;;;;;;;;;;;5060113;28;20037;-78
2022/06/17 09:19:17;;;;;;;8.90;3.17;;;;;;;;;;5056652;28;19905;-77
2022/06/17 09:21:46;;;;;;;14.25;3.88;;;;;;;;;;5056048;28;20501;-77
2022/06/17 09:24:16;;;;;;;11.55;2.85;;;;;;;;;;5057319;28;20116;-77
2022/06/17 09:26:46;;;;;;;12.10;3.00;;;;;;;;;;5055507;28;20055;-77
2022/06/17 09:29:25;;;;;;;10.48;3.25;;;;;;;;;;5054512;28;20060;-77
2022/06/17 09:32:03;;;;;;;11.70;3.08;;;;;;;;;;5057236;28;20062;-79
2022/06/17 09:34:47;;;;;;;12.10;3.45;;;;;;;;;;5056646;28;20477;-78
2022/06/17 09:37:26;;;;;;;17.55;5.68;;;;;;;;;;5056436;28;20070;-78
2022/06/17 09:40:02;;;;;;;10.63;3.75;;;;;;;;;;5053741;28;20025;-77
2022/06/17 09:42:41;;;;;;;11.52;3.88;;;;;;;;;;5053721;28;20035;-76
2022/06/17 09:45:07;;;;;;;8.63;3.47;;;;;;;;;;5053543;28;20036;-77
2022/06/17 09:47:52;;;;;;;12.93;3.63;;;;;;;;;;5055188;28;20028;-76
2022/06/17 09:50:25;;;;;;;10.63;3.63;;;;;;;;;;5062788;28;20024;-76
2022/06/17 09:52:57;;;;;;;9.75;3.47;;;;;;;;;;5060406;28;20032;-76
2022/06/17 09:55:32;;;;;;;9.73;4.00;;;;;;;;;;5063761;28;20013;-77
2022/06/17 09:58:01;;;;;;;8.07;3.28;;;;;;;;;;5076042;28;20059;-77
2022/06/17 10:00:42;;;;;;;14.88;3.70;;;;;;;;;;5076473;28;20084;-77
2022/06/17 10:03:23;;;;;;;6.28;3.03;;;;;;;;;;5078130;28;20029;-76
2022/06/17 10:05:54;;;;;;;9.88;3.03;;;;;;;;;;5077896;28;20028;-77
2022/06/17 10:08:39;;;;;;;14.10;2.95;;;;;;;;;;5077475;28;20029;-78
2022/06/17 10:11:28;;;;;;;9.38;2.97;;;;;;;;;;5056420;28;20029;-78
2022/06/17 10:14:13;;;;;;;9.32;3.25;;;;;;;;;;5069354;28;20033;-78
2022/06/17 10:19:55;;;;;;;10.27;3.50;;;;;;;;;;5057085;28;20520;-78
2022/06/17 10:22:39;;;;;;;11.88;3.83;;;;;;;;;;5058899;28;20048;-77
2022/06/17 10:25:22;;;;;;;11.07;3.60;;;;;;;;;;5062569;28;20044;-79
2022/06/17 10:28:06;;;;;;;11.85;3.38;;;;;;;;;;5064198;28;20097;-78
2022/06/17 10:30:41;;;;;;;8.73;2.90;;;;;;;;;;5067074;28;20025;-76
2022/06/17 10:33:10;;;;;;;9.23;3.53;;;;;;;;;;5069196;28;20048;-78
2022/06/17 10:35:39;;;;;;;11.18;3.10;;;;;;;;;;5066136;28;20083;-75
2022/06/17 10:38:06;;;;;;;7.30;3.17;;;;;;;;;;5064798;28;20124;-78
2022/06/17 10:40:34;;;;;;;11.55;3.28;;;;;;;;;;5064560;28;20051;-77
2022/06/17 10:43:02;;;;;;;10.65;3.28;;;;;;;;;;5066371;28;20059;-78
2022/06/17 10:45:28;;;;;;;11.57;3.42;;;;;;;;;;5066290;28;20025;-78
2022/06/17 10:47:57;;;;;;;12.00;3.72;;;;;;;;;;5068284;28;20067;-78
2022/06/17 10:50:28;;;;;;;15.13;3.88;;;;;;;;;;5060783;28;20029;-76
2022/06/17 10:53:15;;;;;;;6.85;2.85;;;;;;;;;;5061495;28;20067;-76
2022/06/17 10:55:43;;;;;;;11.07;2.88;;;;;;;;;;5064478;28;20052;-76
2022/06/17 10:58:17;;;;;;;8.68;3.15;;;;;;;;;;5058142;28;20021;-76
2022/06/17 11:00:43;;;;;;;;;;;;;;;;;;5061239;28;20049;-77
2022/06/17 11:03:17;;;;;;;11.07;3.08;;;;;;;;;;5062830;28;19912;-77
2022/06/17 11:05:51;;;;;;;9.18;3.38;;;;;;;;;;5061634;28;20029;-77
2022/06/17 11:08:22;;;;;;;9.63;2.63;;;;;;;;;;5069504;28;20025;-78
2022/06/17 11:10:57;;;;;;;11.05;2.70;;;;;;;;;;5060602;28;20032;-77
2022/06/17 11:13:23;;;;;;;9.45;2.85;;;;;;;;;;5061770;28;20039;-78
2022/06/17 11:15:57;;;;;;;11.15;2.53;;;;;;;;;;5060225;28;20052;-77
2022/06/17 11:18:26;;;;;;;9.25;2.60;;;;;;;;;;5062891;28;20067;-77
2022/06/17 11:20:57;;;;;;;8.35;2.70;;;;;;;;;;5063780;28;20048;-76
2022/06/17 11:23:24;;;;;;;4.95;2.40;;;;;;;;;;5065097;28;20060;-76
2022/06/17 11:25:54;;;;;;;10.77;2.88;;;;;;;;;;5066332;28;20193;-77
2022/06/17 11:28:24;;;;;;;8.95;3.10;;;;;;;;;;5065862;28;20033;-81
2022/06/17 11:30:52;;;;;;;12.32;3.60;;;;;;;;;;5070300;28;20031;-78
2022/06/17 11:33:26;;;;;;;11.50;3.22;;;;;;;;;;5064285;28;20021;-79
2022/06/17 11:36:01;;;;;;;10.45;3.63;;;;;;;;;;5065965;28;20029;-79
2022/06/17 11:38:27;;;;;;;8.77;2.97;;;;;;;;;;5069087;28;20062;-78
2022/06/17 11:41:00;;;;;;;8.70;2.60;;;;;;;;;;5064421;28;20136;-80
2022/06/17 11:43:40;;;;;;;8.25;3.85;;;;;;;;;;5061757;28;20023;-77
2022/06/17 11:46:10;;;;;;;14.02;3.67;;;;;;;;;;5057213;28;20029;-79
2022/06/17 11:48:40;;;;;;;14.40;3.63;;;;;;;;;;5061127;28;20023;-79
2022/06/17 11:51:14;;;;;;;14.93;7.53;;;;;;;;;;5073937;28;20056;-77
2022/06/17 11:53:40;;;;;;;;;;;;;;;;;;5071095;28;20394;-77
2022/06/17 11:56:08;;;;;;;15.13;3.47;;;;;;;;;;5057638;28;19908;-78
2022/06/17 11:58:34;;;;;;;11.05;3.42;;;;;;;;;;5060336;28;20025;-78
2022/06/17 12:01:12;;;;;;;9.88;3.28;;;;;;;;;;5058343;28;20021;-78
2022/06/17 12:03:39;;;;;;;12.82;3.45;;;;;;;;;;5056995;28;20389;-80
2022/06/17 12:06:06;;;;;;;6.05;2.67;;;;;;;;;;5062758;28;20021;-78
2022/06/17 12:08:35;;;;;;;9.98;3.42;;;;;;;;;;5056870;28;20021;-79
2022/06/17 12:11:03;;;;;;;9.43;3.40;;;;;;;;;;5055407;28;20021;-77
2022/06/17 12:13:32;;;;;;;12.85;2.80;;;;;;;;;;5055644;28;20041;-75
2022/06/17 12:16:02;;;;;;;6.95;2.53;;;;;;;;;;5053386;28;20040;-76
2022/06/17 12:18:37;;;;;;;12.48;4.18;;;;;;;;;;5076338;23;20049;-69
2022/06/17 12:21:29;;;;;;;7.35;2.90;;;;;;;;;;5057305;28;20033;-71
2022/06/17 12:23:55;;;;;;;15.73;3.30;;;;;;;;;;5052183;28;20033;-70
2022/06/17 12:26:28;;;;;;;8.90;3.28;;;;;;;;;;5053679;28;20104;-70
2022/06/17 12:28:54;;;;;;;8.20;3.28;;;;;;;;;;5053527;28;20119;-72
2022/06/17 12:31:37;;;;;;;11.48;4.07;;;;;;;;;;5053771;28;20096;-70
2022/06/17 12:34:21;;;;;;;10.13;3.10;;;;;;;;;;5054366;28;20025;-71
2022/06/17 12:36:47;;;;;;;;;;;;;;;;;;5056102;28;20127;-69
2022/06/17 12:39:36;;;;;;;10.25;3.40;;;;;;;;;;5053591;28;20346;-73
2022/06/17 12:42:21;;;;;;;15.00;3.72;;;;;;;;;;5018179;28;20064;-71
2022/06/17 12:44:47;;;;;;;16.42;3.63;;;;;;;;;;5055627;28;20485;-71
2022/06/17 12:47:18;;;;;;;11.00;2.90;;;;;;;;;;5056949;28;20040;-72
2022/06/17 12:53:14;;;;;;;9.57;4.07;;;;;;;;;;5056835;28;20032;-70
2022/06/17 12:55:57;;;;;;;13.73;3.55;;;;;;;;;;5051485;28;20113;-70
2022/06/17 12:58:28;;;;;;;18.10;3.58;;;;;;;;;;5052546;28;20024;-71
2022/06/17 13:01:00;;;;;;;10.43;3.88;;;;;;;;;;5051498;28;20013;-71
2022/06/17 13:03:29;;;;;;;17.52;4.43;;;;;;;;;;5052463;28;20025;-70
2022/06/17 13:05:56;;;;;;;15.93;4.20;;;;;;;;;;5053225;28;20100;-71
2022/06/17 13:08:40;;;;;;;9.52;3.38;;;;;;;;;;5052786;28;20059;-70
2022/06/17 13:11:11;;;;;;;9.30;3.38;;;;;;;;;;5052757;28;20068;-71
2022/06/17 13:13:43;;;;;;;10.57;3.42;;;;;;;;;;5054486;28;20074;-70
2022/06/17 13:16:09;;;;;;;8.57;2.85;;;;;;;;;;5053608;28;20052;-72
2022/06/17 13:18:44;;;;;;;9.68;3.80;;;;;;;;;;5052748;28;20033;-73
2022/06/17 13:21:10;;;;;;;9.57;3.60;;;;;;;;;;5052825;28;20473;-71
2022/06/17 13:23:46;;;;;;;11.27;3.38;;;;;;;;;;5052822;28;20025;-72
2022/06/17 13:26:15;;;;;;;11.40;4.30;;;;;;;;;;5052954;28;20416;-71
2022/06/17 13:28:52;;;;;;;8.88;3.30;;;;;;;;;;5053012;28;20029;-71
2022/06/17 13:31:20;;;;;;;15.13;4.20;;;;;;;;;;5052084;28;20036;-71
2022/06/17 13:33:55;;;;;;;13.15;4.10;;;;;;;;;;5051081;28;20029;-72
2022/06/17 13:36:27;;;;;;;13.43;3.80;;;;;;;;;;5051661;28;20123;-71
2022/06/17 13:38:59;;;;;;;11.57;3.78;;;;;;;;;;5054592;28;20028;-70
2022/06/17 13:41:28;;;;;;;14.15;4.18;;;;;;;;;;5051347;28;20374;-71
2022/06/17 13:44:00;;;;;;;11.43;4.03;;;;;;;;;;5052117;28;20032;-71
2022/06/17 13:46:26;;;;;;;14.45;3.97;;;;;;;;;;5052201;28;20029;-71
2022/06/17 13:49:04;;;;;;;13.77;4.03;;;;;;;;;;5051795;28;20052;-71
2022/06/17 13:51:38;;;;;;;14.80;3.97;;;;;;;;;;5051895;28;20062;-71
2022/06/17 13:54:07;;;;;;;7.90;3.38;;;;;;;;;;5051940;28;20029;-73
2022/06/17 13:56:45;;;;;;;9.18;3.22;;;;;;;;;;5048886;28;20029;-70
2022/06/17 13:59:30;;;;;;;15.88;4.47;;;;;;;;;;5052336;28;20021;-71
2022/06/17 14:02:25;;;;;;;10.00;3.33;;;;;;;;;;5051345;28;20021;-70
2022/06/17 14:05:14;;;;;;;9.68;3.47;;;;;;;;;;5038839;28;20507;-72
2022/06/17 14:07:55;;;;;;;9.48;3.40;;;;;;;;;;5054603;28;20199;-71
2022/06/17 14:10:27;;;;;;;15.60;3.55;;;;;;;;;;5055379;28;20032;-71
2022/06/17 14:12:53;;;;;;;12.63;3.95;;;;;;;;;;5050987;28;20029;-70
2022/06/17 14:15:24;;;;;;;9.98;3.20;;;;;;;;;;5051298;28;20033;-72
2022/06/17 14:17:53;;;;;;;15.82;4.60;;;;;;;;;;5051895;28;20092;-71
2022/06/17 14:20:28;;;;;;;7.72;3.05;;;;;;;;;;5051749;28;20024;-72
2022/06/17 14:23:03;;;;;;;10.82;3.10;;;;;;;;;;5051682;28;20028;-72
2022/06/17 14:25:46;;;;;;;13.55;4.00;;;;;;;;;;5051028;28;20025;-73
2022/06/17 14:28:31;;;;;;;13.52;3.67;;;;;;;;;;5052233;28;20025;-71
2022/06/17 14:31:09;;;;;;;14.05;4.25;;;;;;;;;;5050920;28;20036;-71
2022/06/17 14:33:40;;;;;;;12.77;3.78;;;;;;;;;;5056494;28;20112;-72
2022/06/17 14:36:14;;;;;;;15.38;3.92;;;;;;;;;;5054997;28;20021;-73
2022/06/17 14:38:41;;;;;;;10.90;4.45;;;;;;;;;;5058695;28;20021;-73
2022/06/17 14:44:30;;;;;;;14.43;5.22;;;;;;;;;;5011018;28;20041;-70
2022/06/17 14:47:14;;;;;;;16.00;5.68;;;;;;;;;;5051931;28;20037;-70
2022/06/17 14:49:58;;;;;;;8.52;3.30;;;;;;;;;;5055557;28;20048;-74
2022/06/17 14:52:32;;;;;;;8.82;3.60;;;;;;;;;;5055109;28;20021;-71
2022/06/17 14:55:11;;;;;;;16.42;5.45;;;;;;;;;;5055522;28;20029;-72
2022/06/17 14:58:00;;;;;;;10.32;3.63;;;;;;;;;;5055488;28;20497;-73
2022/06/17 15:00:32;;;;;;;9.23;3.80;;;;;;;;;;5054050;28;20047;-72
2022/06/17 15:02:59;;;;;;;9.82;3.20;;;;;;;;;;5055898;28;20033;-73
2022/06/17 15:05:28;;;;;;;10.60;3.35;;;;;;;;;;5055715;28;20033;-72
2022/06/17 15:07:57;;;;;;;9.48;4.18;;;;;;;;;;5057991;28;20089;-73